createdAt,value
2023-02-23T00:01:30.209Z,11.52
2023-02-23T00:03:58.726Z,11.51
2023-02-23T00:06:27.913Z,11.62
2023-02-23T00:08:55.073Z,11.70
2023-02-23T00:11:22.559Z,11.67
2023-02-23T00:13:50.526Z,11.71
2023-02-23T00:16:21.033Z,11.63
2023-02-23T00:18:51.316Z,11.77
2023-02-23T00:21:20.683Z,11.66
2023-02-23T00:23:50.431Z,11.75
2023-02-23T00:26:20.871Z,11.77
2023-02-23T00:28:53.961Z,11.87
2023-02-23T00:34:54.447Z,11.55
2023-02-23T00:37:25.394Z,11.36
2023-02-23T00:39:56.548Z,11.44
2023-02-23T00:42:24.071Z,11.27
2023-02-23T00:44:51.943Z,11.38
2023-02-23T00:47:18.746Z,11.45
2023-02-23T00:49:45.541Z,11.32
2023-02-23T00:52:14.807Z,11.46
2023-02-23T00:54:42.184Z,11.46
2023-02-23T00:57:08.980Z,11.45
2023-02-23T00:59:35.766Z,11.39
2023-02-23T01:02:02.839Z,11.43
2023-02-23T01:04:29.758Z,11.39
2023-02-23T01:06:56.478Z,11.47
2023-02-23T01:09:28.274Z,11.24
2023-02-23T01:11:57.145Z,11.36
2023-02-23T01:14:24.494Z,11.16
2023-02-23T01:16:51.446Z,11.33
2023-02-23T01:19:18.633Z,11.37
2023-02-23T01:21:45.780Z,11.40
2023-02-23T01:24:13.349Z,11.24
2023-02-23T01:26:43.112Z,11.31
2023-02-23T01:29:19.914Z,11.23
2023-02-23T01:31:51.337Z,11.05
2023-02-23T01:34:19.871Z,11.07
2023-02-23T01:36:46.565Z,10.70
2023-02-23T01:39:19.110Z,10.91
2023-02-23T01:41:46.014Z,11.10
2023-02-23T01:44:14.713Z,11.07
2023-02-23T01:46:45.219Z,10.97
2023-02-23T01:49:17.748Z,10.99
2023-02-23T01:51:48.935Z,11.03
2023-02-23T01:54:20.249Z,10.99
2023-02-23T01:56:58.226Z,10.86
2023-02-23T01:59:49.738Z,10.93
2023-02-23T02:02:21.054Z,10.84
2023-02-23T02:04:52.129Z,10.96
2023-02-23T02:07:25.023Z,10.78
2023-02-23T02:10:11.478Z,10.54
2023-02-23T02:12:44.283Z,10.71
2023-02-23T02:15:17.304Z,10.65
2023-02-23T02:18:23.555Z,10.57
2023-02-23T02:20:56.300Z,10.46
2023-02-23T02:23:54.469Z,10.55
2023-02-23T02:26:51.723Z,10.44
2023-02-23T02:29:37.199Z,10.30
2023-02-23T02:32:15.880Z,10.26
2023-02-23T02:35:20.036Z,10.56
2023-02-23T02:38:12.983Z,10.55
2023-02-23T02:40:55.392Z,10.41
2023-02-23T02:43:25.157Z,10.32
2023-02-23T02:45:53.702Z,10.32
2023-02-23T02:48:25.694Z,10.22
2023-02-23T02:50:59.261Z,10.27
2023-02-23T02:53:41.937Z,10.28
2023-02-23T02:56:09.973Z,10.24
2023-02-23T02:58:39.095Z,10.18
2023-02-23T03:01:31.368Z,10.27
2023-02-23T03:04:19.449Z,10.16
2023-02-23T03:07:11.637Z,10.06
2023-02-23T03:10:17.120Z,9.98
2023-02-23T03:13:11.444Z,10.01
2023-02-23T03:16:15.620Z,9.98
2023-02-23T03:19:27.314Z,9.92
2023-02-23T03:22:26.328Z,10.03
2023-02-23T03:25:21.188Z,9.91
2023-02-23T03:28:12.418Z,9.83
2023-02-23T03:31:26.662Z,9.80
2023-02-23T03:34:26.159Z,9.87
2023-02-23T03:37:23.774Z,9.74
2023-02-23T03:40:26.267Z,9.48
2023-02-23T03:43:15.101Z,9.45
2023-02-23T03:46:05.179Z,9.67
2023-02-23T03:48:54.789Z,9.58
2023-02-23T03:51:43.307Z,9.53
2023-02-23T03:54:35.645Z,9.53
2023-02-23T03:57:27.567Z,9.66
2023-02-23T04:00:17.427Z,9.45
2023-02-23T04:03:06.107Z,9.50
2023-02-23T04:05:53.937Z,9.38
2023-02-23T04:08:43.911Z,9.50
2023-02-23T04:11:53.052Z,9.28
2023-02-23T04:14:27.565Z,9.25
2023-02-23T04:16:55.186Z,9.15
2023-02-23T04:19:21.933Z,9.08
2023-02-23T04:21:48.927Z,9.20
2023-02-23T04:24:15.843Z,9.17
2023-02-23T04:26:42.916Z,9.34
2023-02-23T04:29:11.703Z,9.32
2023-02-23T04:31:39.123Z,9.04
2023-02-23T04:34:06.004Z,9.05
2023-02-23T04:36:32.861Z,9.00
2023-02-23T04:38:59.860Z,9.15
2023-02-23T04:41:26.646Z,8.95
2023-02-23T04:43:53.434Z,9.07
2023-02-23T04:46:20.246Z,9.12
2023-02-23T04:48:47.541Z,9.26
2023-02-23T04:51:14.315Z,8.89
2023-02-23T04:53:41.092Z,9.11
2023-02-23T04:56:08.157Z,9.09
2023-02-23T04:58:34.993Z,9.20
2023-02-23T05:01:09.820Z,9.21
2023-02-23T05:03:36.836Z,9.23
2023-02-23T05:06:03.811Z,9.37
2023-02-23T05:08:31.031Z,9.36
2023-02-23T05:10:57.786Z,9.50
2023-02-23T05:13:24.886Z,9.35
2023-02-23T05:15:56.578Z,9.52
2023-02-23T05:18:25.313Z,9.23
2023-02-23T05:20:52.862Z,9.41
2023-02-23T05:23:21.867Z,9.25
2023-02-23T05:25:48.659Z,9.28
2023-02-23T05:28:15.505Z,9.06
2023-02-23T05:30:43.659Z,9.20
2023-02-23T05:33:10.520Z,9.30
2023-02-23T05:35:41.196Z,9.41
2023-02-23T05:38:08.075Z,9.42
2023-02-23T05:40:35.086Z,9.46
2023-02-23T05:43:01.924Z,9.42
2023-02-23T05:45:28.593Z,9.40
2023-02-23T05:47:57.485Z,9.51
2023-02-23T05:50:24.240Z,9.41
2023-02-23T05:52:51.401Z,9.47
2023-02-23T05:55:18.209Z,9.66
2023-02-23T05:57:45.660Z,9.47
2023-02-23T06:00:15.930Z,9.46
2023-02-23T06:02:44.361Z,9.42
2023-02-23T06:05:14.121Z,9.46
2023-02-23T06:07:41.077Z,9.45
2023-02-23T06:10:08.570Z,9.36
2023-02-23T06:12:35.540Z,9.42
2023-02-23T06:15:02.228Z,9.49
2023-02-23T06:17:29.048Z,9.62
2023-02-23T06:19:55.854Z,9.55
2023-02-23T06:22:23.128Z,9.66
2023-02-23T06:24:50.877Z,9.74
2023-02-23T06:27:17.628Z,9.67
2023-02-23T06:29:44.632Z,9.80
2023-02-23T06:32:11.772Z,9.94
2023-02-23T06:34:45.739Z,10.16
2023-02-23T06:37:12.884Z,10.28
2023-02-23T06:39:39.601Z,10.24
2023-02-23T06:42:06.348Z,10.30
2023-02-23T06:44:35.461Z,10.29
2023-02-23T06:47:05.805Z,10.47
2023-02-23T06:49:32.664Z,10.41
2023-02-23T06:51:59.577Z,10.52
2023-02-23T06:54:26.569Z,10.44
2023-02-23T06:56:55.699Z,10.52
2023-02-23T06:59:24.081Z,10.67
2023-02-23T07:01:52.323Z,10.66
2023-02-23T07:04:19.169Z,10.68
2023-02-23T07:06:46.980Z,10.66
2023-02-23T07:09:15.535Z,10.78
2023-02-23T07:11:44.858Z,10.77
2023-02-23T07:14:15.354Z,11.00
2023-02-23T07:16:48.385Z,11.12
2023-02-23T07:19:15.172Z,11.21
2023-02-23T07:21:42.002Z,11.51
2023-02-23T07:24:09.048Z,11.67
2023-02-23T07:26:36.171Z,11.68
2023-02-23T07:29:03.534Z,11.56
2023-02-23T07:31:30.434Z,11.54
2023-02-23T07:33:57.094Z,11.69
2023-02-23T07:36:24.583Z,12.02
2023-02-23T07:38:51.301Z,12.02
2023-02-23T07:41:18.471Z,12.17
2023-02-23T07:43:45.493Z,12.13
2023-02-23T07:46:13.575Z,12.32
2023-02-23T07:48:42.234Z,12.21
2023-02-23T07:51:11.901Z,12.49
2023-02-23T07:53:40.150Z,12.73
2023-02-23T07:56:10.885Z,12.79
2023-02-23T07:58:39.350Z,12.98
2023-02-23T08:01:06.514Z,13.30
2023-02-23T08:03:33.374Z,13.41
2023-02-23T08:06:00.319Z,13.23
2023-02-23T08:08:27.842Z,13.58
2023-02-23T08:11:02.113Z,13.62
2023-02-23T08:13:29.950Z,14.05
2023-02-23T08:15:56.992Z,14.15
2023-02-23T08:18:24.300Z,14.19
2023-02-23T08:20:51.239Z,14.07
2023-02-23T08:23:18.257Z,14.52
2023-02-23T08:25:45.262Z,14.55
2023-02-23T08:28:12.581Z,14.62
2023-02-23T08:30:41.499Z,14.80
2023-02-23T08:33:08.362Z,15.09
2023-02-23T08:35:35.260Z,15.24
2023-02-23T08:38:02.045Z,15.59
2023-02-23T08:40:28.948Z,15.94
2023-02-23T08:42:55.791Z,16.16
2023-02-23T08:45:22.626Z,16.38
2023-02-23T08:47:49.413Z,16.20
2023-02-23T08:50:16.306Z,16.49
2023-02-23T08:52:43.329Z,16.55
2023-02-23T08:55:11.806Z,16.37
2023-02-23T08:57:38.908Z,16.52
2023-02-23T09:00:14.327Z,16.34
2023-02-23T09:02:42.315Z,16.58
2023-02-23T09:05:09.763Z,16.80
2023-02-23T09:07:38.627Z,16.19
2023-02-23T09:10:05.813Z,16.08
2023-02-23T09:12:32.753Z,16.44
2023-02-23T09:14:59.497Z,16.89
2023-02-23T09:17:26.407Z,16.93
2023-02-23T09:19:53.277Z,17.22
2023-02-23T09:22:20.105Z,17.38
2023-02-23T09:24:46.926Z,17.77
2023-02-23T09:27:14.788Z,18.01
2023-02-23T09:29:44.556Z,17.90
2023-02-23T09:32:12.165Z,18.23
2023-02-23T09:34:39.103Z,18.31
2023-02-23T09:37:05.994Z,18.68
2023-02-23T09:39:38.505Z,18.60
2023-02-23T09:42:28.644Z,18.81
2023-02-23T09:45:31.449Z,18.62
2023-02-23T09:48:04.403Z,18.64
2023-02-23T09:50:34.936Z,18.82
2023-02-23T09:53:27.167Z,19.04
2023-02-23T09:55:57.438Z,19.39
2023-02-23T09:58:25.557Z,19.85
2023-02-23T10:01:14.284Z,19.82
2023-02-23T10:03:52.702Z,19.86
2023-02-23T10:06:21.098Z,19.98
2023-02-23T10:09:28.940Z,20.12
2023-02-23T10:12:08.121Z,19.89
2023-02-23T10:14:56.312Z,20.03
2023-02-23T10:17:40.459Z,20.43
2023-02-23T10:20:40.671Z,20.45
2023-02-23T10:23:15.279Z,20.73
2023-02-23T10:25:47.156Z,20.68
2023-02-23T10:28:21.554Z,20.55
2023-02-23T10:30:50.845Z,20.74
2023-02-23T10:33:32.723Z,20.77
2023-02-23T10:36:13.784Z,20.14
2023-02-23T10:38:41.274Z,20.79
2023-02-23T10:41:09.836Z,20.39
2023-02-23T10:43:37.038Z,20.72
2023-02-23T10:46:06.306Z,20.98
2023-02-23T10:48:43.191Z,21.01
2023-02-23T10:51:25.266Z,21.31
2023-02-23T10:53:53.017Z,20.70
2023-02-23T10:56:22.130Z,20.67
2023-02-23T10:58:55.148Z,20.37
2023-02-23T11:02:00.420Z,20.26
2023-02-23T11:04:31.423Z,20.31
2023-02-23T11:07:22.657Z,20.82
2023-02-23T11:09:51.619Z,20.91
2023-02-23T11:12:24.072Z,20.76
2023-02-23T11:14:53.751Z,20.61
2023-02-23T11:17:38.958Z,21.04
2023-02-23T11:20:29.134Z,21.23
2023-02-23T11:23:03.624Z,21.09
2023-02-23T11:25:37.637Z,20.97
2023-02-23T11:28:04.578Z,21.20
2023-02-23T11:30:37.561Z,21.36
2023-02-23T11:33:12.361Z,20.70
2023-02-23T11:35:39.258Z,21.12
2023-02-23T11:38:35.141Z,21.48
2023-02-23T11:41:04.899Z,21.53
2023-02-23T11:43:31.806Z,21.47
2023-02-23T11:46:01.056Z,21.34
2023-02-23T11:48:52.796Z,21.94
2023-02-23T11:51:27.400Z,22.10
2023-02-23T11:53:55.272Z,22.31
2023-02-23T11:56:25.620Z,22.60
2023-02-23T11:59:18.298Z,22.57
2023-02-23T12:01:52.556Z,22.37
2023-02-23T12:04:29.542Z,22.11
2023-02-23T12:07:43.128Z,22.07
2023-02-23T12:10:43.284Z,22.38
2023-02-23T12:13:27.808Z,22.59
2023-02-23T12:16:04.726Z,22.75
2023-02-23T12:18:53.197Z,22.82
2023-02-23T12:21:32.118Z,22.99
2023-02-23T12:24:11.153Z,23.27
2023-02-23T12:26:51.290Z,23.21
2023-02-23T12:29:30.341Z,23.15
2023-02-23T12:32:12.918Z,22.89
2023-02-23T12:34:45.239Z,22.73
2023-02-23T12:37:29.144Z,21.75
2023-02-23T12:40:10.639Z,21.77
2023-02-23T12:42:46.597Z,21.86
2023-02-23T12:45:38.654Z,22.11
2023-02-23T12:48:31.498Z,22.32
2023-02-23T12:51:01.719Z,22.33
2023-02-23T12:53:37.294Z,22.58
2023-02-23T12:56:04.507Z,22.41
2023-02-23T12:58:46.432Z,22.55
2023-02-23T13:01:26.938Z,22.79
2023-02-23T13:04:24.135Z,22.87
2023-02-23T13:07:05.281Z,22.92
2023-02-23T13:09:55.720Z,22.94
2023-02-23T13:12:36.248Z,22.90
2023-02-23T13:15:30.365Z,22.81
2023-02-23T13:18:09.993Z,22.94
2023-02-23T13:20:47.939Z,22.90
2023-02-23T13:23:34.609Z,23.22
2023-02-23T13:26:01.527Z,23.29
2023-02-23T13:29:02.664Z,23.05
2023-02-23T13:31:35.115Z,22.84
2023-02-23T13:34:05.366Z,22.58
2023-02-23T13:36:34.494Z,22.81
2023-02-23T13:39:20.114Z,22.60
2023-02-23T13:42:28.067Z,22.67
2023-02-23T13:44:54.873Z,22.52
2023-02-23T13:48:03.384Z,22.58
2023-02-23T13:50:34.698Z,22.52
2023-02-23T13:53:05.970Z,22.35
2023-02-23T13:55:51.262Z,22.33
2023-02-23T13:58:25.441Z,22.24
2023-02-23T14:01:24.887Z,21.91
2023-02-23T14:03:57.988Z,22.00
2023-02-23T14:06:27.939Z,21.96
2023-02-23T14:09:10.715Z,21.97
2023-02-23T14:11:49.163Z,21.97
2023-02-23T14:14:36.475Z,21.85
2023-02-23T14:17:16.313Z,21.29
2023-02-23T14:19:44.233Z,21.11
2023-02-23T14:22:18.508Z,21.19
2023-02-23T14:24:46.494Z,20.72
2023-02-23T14:27:41.372Z,20.68
2023-02-23T14:30:11.883Z,20.76
2023-02-23T14:32:49.495Z,20.84
2023-02-23T14:35:34.456Z,20.82
2023-02-23T14:38:05.268Z,20.57
2023-02-23T14:40:34.859Z,20.67
2023-02-23T14:43:04.311Z,20.74
2023-02-23T14:45:36.457Z,20.26
2023-02-23T14:48:07.649Z,20.37
2023-02-23T14:50:37.570Z,20.19
2023-02-23T14:53:08.568Z,20.19
2023-02-23T14:55:36.749Z,20.10
2023-02-23T14:58:19.561Z,19.97
2023-02-23T15:00:49.080Z,19.81
2023-02-23T15:03:15.875Z,19.55
2023-02-23T15:05:52.645Z,19.82
2023-02-23T15:08:24.312Z,19.47
2023-02-23T15:11:10.141Z,19.37
2023-02-23T15:13:40.840Z,19.18
2023-02-23T15:16:19.907Z,18.92
2023-02-23T15:18:48.018Z,18.55
2023-02-23T15:21:21.541Z,18.83
2023-02-23T15:23:53.088Z,18.86
2023-02-23T15:26:33.678Z,18.79
2023-02-23T15:29:21.568Z,19.00
2023-02-23T15:31:53.884Z,18.89
2023-02-23T15:34:28.123Z,18.60
2023-02-23T15:37:04.694Z,18.64
2023-02-23T15:39:49.155Z,18.59
2023-02-23T15:42:40.322Z,18.42
2023-02-23T15:45:31.947Z,18.45
2023-02-23T15:48:03.222Z,18.13
2023-02-23T15:50:40.368Z,18.08
2023-02-23T15:53:19.666Z,18.07
2023-02-23T15:55:48.066Z,17.85
2023-02-23T15:58:26.125Z,17.87
2023-02-23T16:01:00.047Z,17.63
2023-02-23T16:03:34.442Z,17.57
2023-02-23T16:06:08.620Z,17.74
2023-02-23T16:08:36.982Z,17.24
2023-02-23T16:11:12.609Z,17.35
2023-02-23T16:13:44.575Z,17.37
2023-02-23T16:16:19.361Z,16.95
2023-02-23T16:18:51.503Z,16.94
2023-02-23T16:21:23.774Z,16.98
2023-02-23T16:23:53.650Z,16.71
2023-02-23T16:26:26.912Z,16.95
2023-02-23T16:29:02.235Z,16.70
2023-02-23T16:31:47.903Z,16.67
2023-02-23T16:34:35.749Z,16.80
2023-02-23T16:37:15.766Z,16.80
2023-02-23T16:39:42.592Z,16.75
2023-02-23T16:42:17.410Z,16.68
2023-02-23T16:44:47.206Z,16.69
2023-02-23T16:47:23.105Z,16.84
2023-02-23T16:49:53.096Z,16.55
2023-02-23T16:52:23.417Z,16.66
2023-02-23T16:54:53.858Z,16.54
2023-02-23T16:57:27.171Z,16.33
2023-02-23T16:59:55.086Z,16.22
2023-02-23T17:02:24.855Z,16.23
2023-02-23T17:04:52.912Z,16.16
2023-02-23T17:07:23.159Z,15.99
2023-02-23T17:09:50.922Z,16.45
2023-02-23T17:12:21.817Z,16.28
2023-02-23T17:14:50.156Z,16.19
2023-02-23T17:17:18.969Z,16.02
2023-02-23T17:19:48.100Z,15.71
2023-02-23T17:22:15.253Z,15.65
2023-02-23T17:24:43.114Z,15.90
2023-02-23T17:27:11.681Z,15.95
2023-02-23T17:29:38.746Z,15.96
2023-02-23T17:32:06.054Z,15.82
2023-02-23T17:34:32.995Z,15.77
2023-02-23T17:36:59.689Z,15.54
2023-02-23T17:39:28.934Z,15.16
2023-02-23T17:41:56.042Z,15.29
2023-02-23T17:44:23.049Z,15.17
2023-02-23T17:46:49.867Z,15.31
2023-02-23T17:49:16.842Z,15.27
2023-02-23T17:51:43.700Z,15.22
2023-02-23T17:54:10.769Z,15.09
2023-02-23T17:56:37.721Z,15.24
2023-02-23T17:59:04.531Z,14.86
2023-02-23T18:01:31.352Z,14.79
2023-02-23T18:03:59.286Z,14.77
2023-02-23T18:06:26.038Z,14.80
2023-02-23T18:08:52.960Z,14.62
2023-02-23T18:11:19.892Z,14.90
2023-02-23T18:13:48.043Z,14.68
2023-02-23T18:16:16.264Z,14.86
2023-02-23T18:18:46.426Z,14.71
2023-02-23T18:21:19.623Z,14.72
2023-02-23T18:23:47.028Z,14.60
2023-02-23T18:26:17.474Z,14.40
2023-02-23T18:28:45.872Z,14.29
2023-02-23T18:31:14.508Z,14.41
2023-02-23T18:33:41.803Z,14.59
2023-02-23T18:36:23.809Z,14.44
2023-02-23T18:38:51.122Z,14.50
2023-02-23T18:41:19.774Z,14.27
2023-02-23T18:43:47.326Z,14.20
2023-02-23T18:46:14.596Z,13.94
2023-02-23T18:48:42.191Z,13.69
2023-02-23T18:51:14.255Z,13.49
2023-02-23T18:53:42.264Z,13.48
2023-02-23T18:56:15.243Z,13.85
2023-02-23T18:58:44.616Z,13.90
2023-02-23T19:01:23.477Z,13.65
2023-02-23T19:03:52.515Z,13.61
2023-02-23T19:06:22.688Z,13.54
2023-02-23T19:08:54.064Z,13.10
2023-02-23T19:11:32.954Z,13.06
2023-02-23T19:14:03.622Z,12.88
2023-02-23T19:16:31.954Z,12.86
2023-02-23T19:19:00.000Z,13.12
2023-02-23T19:21:27.745Z,13.17
2023-02-23T19:23:59.529Z,12.93
2023-02-23T19:26:27.158Z,13.28
2023-02-23T19:28:53.896Z,13.09
2023-02-23T19:31:22.854Z,12.99
2023-02-23T19:33:50.599Z,13.05
2023-02-23T19:36:20.276Z,13.02
2023-02-23T19:38:48.862Z,12.92
2023-02-23T19:41:19.181Z,13.12
2023-02-23T19:43:46.818Z,13.20
2023-02-23T19:46:17.307Z,12.79
2023-02-23T19:48:51.955Z,13.03
2023-02-23T19:51:19.584Z,13.18
2023-02-23T19:53:46.820Z,13.11
2023-02-23T19:56:16.629Z,13.02
2023-02-23T19:58:46.660Z,12.75
2023-02-23T20:01:17.018Z,12.83
2023-02-23T20:03:45.189Z,12.81
2023-02-23T20:06:14.189Z,12.83
2023-02-23T20:08:43.303Z,12.73
2023-02-23T20:11:11.106Z,12.98
2023-02-23T20:13:39.151Z,13.01
2023-02-23T20:16:11.622Z,13.10
2023-02-23T20:18:40.586Z,12.90
2023-02-23T20:21:19.549Z,12.89
2023-02-23T20:23:47.480Z,12.81
2023-02-23T20:26:18.405Z,12.59
2023-02-23T20:28:45.726Z,12.73
2023-02-23T20:31:22.947Z,12.94
2023-02-23T20:33:50.292Z,12.90
2023-02-23T20:36:18.126Z,12.60
2023-02-23T20:38:45.226Z,12.78
2023-02-23T20:41:12.216Z,12.75
2023-02-23T20:43:39.480Z,12.56
2023-02-23T20:46:06.749Z,12.30
2023-02-23T20:48:34.921Z,12.64
2023-02-23T20:51:02.351Z,12.86
2023-02-23T20:53:29.714Z,12.99
2023-02-23T20:55:56.729Z,12.46
2023-02-23T20:58:26.384Z,12.53
2023-02-23T21:00:57.171Z,13.03
2023-02-23T21:03:25.332Z,12.62
2023-02-23T21:05:52.431Z,12.63
2023-02-23T21:08:20.639Z,12.90
2023-02-23T21:10:48.795Z,12.67
2023-02-23T21:13:16.572Z,12.95
2023-02-23T21:15:44.169Z,13.00
2023-02-23T21:18:11.865Z,13.01
2023-02-23T21:20:39.757Z,13.38
2023-02-23T21:23:07.559Z,13.22
2023-02-23T21:25:34.382Z,13.08
2023-02-23T21:28:01.945Z,12.93
2023-02-23T21:30:29.745Z,13.26
2023-02-23T21:32:57.477Z,12.90
2023-02-23T21:35:25.068Z,12.74
2023-02-23T21:37:52.391Z,12.72
2023-02-23T21:40:21.225Z,12.76
2023-02-23T21:42:49.656Z,12.85
2023-02-23T21:45:17.445Z,12.68
2023-02-23T21:47:46.378Z,12.76
2023-02-23T21:50:16.451Z,12.96
2023-02-23T21:52:45.314Z,13.05
2023-02-23T21:55:21.144Z,12.70
2023-02-23T21:57:49.362Z,13.05
2023-02-23T22:00:16.632Z,12.76
2023-02-23T22:02:46.792Z,12.62
2023-02-23T22:05:15.602Z,12.96
2023-02-23T22:07:48.805Z,12.81
2023-02-23T22:10:17.234Z,12.44
2023-02-23T22:12:43.982Z,12.45
2023-02-23T22:15:11.335Z,12.59
2023-02-23T22:17:38.648Z,12.68
2023-02-23T22:20:07.414Z,13.12
2023-02-23T22:22:36.237Z,13.04
2023-02-23T22:25:08.005Z,13.17
2023-02-23T22:27:34.995Z,13.03
2023-02-23T22:30:01.895Z,13.05
2023-02-23T22:32:33.264Z,12.80
2023-02-23T22:35:01.122Z,12.86
2023-02-23T22:37:29.923Z,12.96
2023-02-23T22:40:16.893Z,12.83
2023-02-23T22:42:48.322Z,12.58
2023-02-23T22:45:16.217Z,12.17
2023-02-23T22:47:44.012Z,12.47
2023-02-23T22:50:13.988Z,12.39
2023-02-23T22:52:40.802Z,12.08
2023-02-23T22:55:08.052Z,12.22
2023-02-23T22:57:35.071Z,12.36
2023-02-23T23:00:07.099Z,12.67
2023-02-23T23:02:36.122Z,12.55
2023-02-23T23:05:02.924Z,12.31
2023-02-23T23:07:31.118Z,12.55
2023-02-23T23:09:58.605Z,12.79
2023-02-23T23:12:27.893Z,12.76
2023-02-23T23:15:01.342Z,12.66
2023-02-23T23:17:31.824Z,13.08
2023-02-23T23:20:00.360Z,12.99
2023-02-23T23:22:27.630Z,12.73
2023-02-23T23:24:54.436Z,12.36
2023-02-23T23:27:21.558Z,12.02
2023-02-23T23:29:49.077Z,12.10
2023-02-23T23:32:18.339Z,12.09
2023-02-23T23:34:48.035Z,12.37
2023-02-23T23:37:19.400Z,12.47
2023-02-23T23:39:46.248Z,12.13
2023-02-23T23:42:13.292Z,12.14
2023-02-23T23:44:40.119Z,12.25
2023-02-23T23:47:07.054Z,12.21
2023-02-23T23:49:37.954Z,12.49
2023-02-23T23:52:06.040Z,12.47
2023-02-23T23:54:38.746Z,12.47
2023-02-23T23:57:06.070Z,12.62
2023-02-23T23:59:34.826Z,12.41
